Time;durP1;ratioP1;P1;durP2;ratioP2;P2;SDS_P1;SDS_P2;PMS_P1;PMS_P2;Temp;Humidity;BMP_temperature;BMP_pressure;BME280_temperature;BME280_humidity;BME280_pressure;Samples;Min_cycle;Max_cycle;Signal;HPM_P1;HPM_P2
2021/07/10 00:00:30;;;;;;;4.77;4.27;;;15.00;99.90;;;;;;5075256;28;20445;-76
2021/07/10 00:02:56;;;;;;;4.80;4.50;;;14.90;99.90;;;;;;5075514;28;20542;-76
2021/07/10 00:05:23;;;;;;;5.17;4.27;;;15.00;99.90;;;;;;5075195;28;20518;-77
2021/07/10 00:07:49;;;;;;;4.27;3.93;;;14.90;99.90;;;;;;5075086;28;21006;-76
2021/07/10 00:10:18;;;;;;;7.43;4.20;;;14.70;99.90;;;;;;5075125;28;20799;-78
2021/07/10 00:12:46;;;;;;;4.40;4.00;;;14.90;99.90;;;;;;5075185;28;20462;-78
2021/07/10 00:15:15;;;;;;;5.30;4.80;;;14.90;99.90;;;;;;5073912;28;20453;-77
2021/07/10 00:17:42;;;;;;;4.90;4.50;;;14.70;99.90;;;;;;5074886;28;20491;-77
2021/07/10 00:20:10;;;;;;;5.70;5.10;;;14.90;99.90;;;;;;5074908;28;20860;-78
2021/07/10 00:22:37;;;;;;;4.73;4.33;;;14.90;99.90;;;;;;5074723;28;20566;-78
2021/07/10 00:25:06;;;;;;;10.33;5.10;;;15.00;99.90;;;;;;5074762;28;20487;-78
2021/07/10 00:27:33;;;;;;;4.57;4.23;;;14.70;99.90;;;;;;5074681;28;20451;-77
2021/07/10 00:30:01;;;;;;;4.87;4.47;;;14.80;99.90;;;;;;5074728;28;20476;-77
2021/07/10 00:32:27;;;;;;;5.30;4.80;;;14.90;99.90;;;;;;5074644;28;20562;-77
2021/07/10 00:34:54;;;;;;;4.93;4.53;;;14.80;99.90;;;;;;5074188;28;20814;-77
2021/07/10 00:37:20;;;;;;;5.60;5.20;;;14.70;99.90;;;;;;5074551;28;20555;-77
2021/07/10 00:39:47;;;;;;;5.03;4.63;;;14.80;99.90;;;;;;5074481;28;20483;-77
2021/07/10 00:42:16;;;;;;;5.90;5.30;;;14.80;99.90;;;;;;5074479;28;20518;-77
2021/07/10 00:44:43;;;;;;;5.57;4.93;;;14.70;99.90;;;;;;5074739;28;20475;-77
2021/07/10 00:47:10;;;;;;;5.37;4.87;;;15.20;99.90;;;;;;5073987;28;20534;-77
2021/07/10 00:49:37;;;;;;;5.17;4.77;;;14.70;99.90;;;;;;5074067;28;20445;-77
2021/07/10 00:52:04;;;;;;;5.50;4.80;;;14.80;99.90;;;;;;5074272;28;20449;-77
2021/07/10 00:54:32;;;;;;;6.47;5.87;;;14.80;99.90;;;;;;5074745;28;20481;-77
2021/07/10 00:56:59;;;;;;;5.97;5.40;;;14.70;99.90;;;;;;5073847;28;20472;-77
2021/07/10 00:59:27;;;;;;;5.73;5.23;;;14.70;99.90;;;;;;5074021;28;20483;-77
2021/07/10 01:01:55;;;;;;;7.50;6.23;;;14.80;99.90;;;;;;5074041;28;20535;-77
2021/07/10 01:04:23;;;;;;;5.10;4.70;;;14.70;99.90;;;;;;5073898;28;20580;-77
2021/07/10 01:06:49;;;;;;;5.40;4.90;;;14.80;99.90;;;;;;5073795;28;20503;-77
2021/07/10 01:09:16;;;;;;;7.83;6.57;;;14.70;99.90;;;;;;5073843;28;20499;-77
2021/07/10 01:11:43;;;;;;;6.27;5.77;;;14.70;99.90;;;;;;5073655;28;20492;-77
2021/07/10 01:14:10;;;;;;;5.57;5.17;;;14.90;99.90;;;;;;5073821;28;20474;-78
2021/07/10 01:16:37;;;;;;;6.30;5.70;;;14.80;99.90;;;;;;5073978;28;20461;-77
2021/07/10 01:19:04;;;;;;;7.03;6.40;;;14.80;99.90;;;;;;5073817;28;20483;-77
2021/07/10 01:21:32;;;;;;;6.80;6.20;;;14.80;99.90;;;;;;5073619;28;20491;-77
2021/07/10 01:23:59;;;;;;;7.87;6.20;;;15.00;99.90;;;;;;5073567;28;20512;-77
2021/07/10 01:26:25;;;;;;;8.50;7.63;;;14.90;99.90;;;;;;5073079;28;20456;-77
2021/07/10 01:28:52;;;;;;;8.47;7.23;;;14.80;99.90;;;;;;5073302;28;20989;-77
2021/07/10 01:31:19;;;;;;;9.00;7.20;;;14.70;99.90;;;;;;5074068;28;20536;-77
2021/07/10 01:33:46;;;;;;;7.83;7.13;;;14.80;99.90;;;;;;5073458;28;20993;-77
2021/07/10 01:36:12;;;;;;;11.73;8.40;;;14.80;99.90;;;;;;5073307;28;20468;-77
2021/07/10 01:38:40;;;;;;;8.67;7.73;;;14.80;99.90;;;;;;5073450;28;20480;-77
2021/07/10 01:41:07;;;;;;;8.83;8.13;;;14.70;99.90;;;;;;5073354;28;20487;-78
2021/07/10 01:43:33;;;;;;;8.83;7.93;;;14.80;99.90;;;;;;5073296;28;20571;-77
2021/07/10 01:46:00;;;;;;;10.17;8.80;;;14.80;99.90;;;;;;5072981;28;20510;-78
2021/07/10 01:48:26;;;;;;;9.40;8.07;;;15.00;99.90;;;;;;5073079;28;20475;-78
2021/07/10 01:50:53;;;;;;;10.93;9.77;;;14.80;99.90;;;;;;5072876;28;20891;-78
2021/07/10 01:53:20;;;;;;;11.00;9.90;;;14.90;99.90;;;;;;5073218;28;20480;-77
2021/07/10 01:55:47;;;;;;;10.93;9.93;;;14.90;99.90;;;;;;5072790;28;21061;-77
2021/07/10 01:58:14;;;;;;;11.57;8.83;;;15.00;99.90;;;;;;5073129;28;20484;-78
2021/07/10 02:00:43;;;;;;;9.93;9.00;;;15.00;99.90;;;;;;5073082;28;20498;-77
2021/07/10 02:03:10;;;;;;;10.33;9.33;;;14.80;99.90;;;;;;5073763;28;20516;-78
2021/07/10 02:05:37;;;;;;;10.83;9.07;;;14.90;99.90;;;;;;5072871;28;20897;-77
2021/07/10 02:08:05;;;;;;;11.13;10.00;;;14.90;99.90;;;;;;5072897;28;20479;-77
2021/07/10 02:10:33;;;;;;;17.40;10.37;;;15.10;99.90;;;;;;5072906;28;20480;-77
2021/07/10 02:13:05;;;;;;;11.87;10.30;;;15.00;99.90;;;;;;5072660;28;20444;-77
2021/07/10 02:15:32;;;;;;;11.83;9.67;;;15.10;99.90;;;;;;5072862;28;20496;-77
2021/07/10 02:17:58;;;;;;;12.47;10.40;;;14.90;99.90;;;;;;5072826;28;20483;-77
2021/07/10 02:20:26;;;;;;;12.17;10.83;;;15.00;99.90;;;;;;5072913;28;20562;-77
2021/07/10 02:22:53;;;;;;;12.23;11.03;;;15.10;99.90;;;;;;5072867;28;20480;-76
2021/07/10 02:25:22;;;;;;;13.17;11.70;;;15.10;99.90;;;;;;5072801;28;20530;-77
2021/07/10 02:27:49;;;;;;;12.77;10.97;;;15.00;99.90;;;;;;5072785;28;20448;-77
2021/07/10 02:30:19;;;;;;;12.47;11.17;;;14.80;99.90;;;;;;5073097;28;20480;-77
2021/07/10 02:32:47;;;;;;;12.20;10.77;;;15.10;99.90;;;;;;5072967;28;20489;-78
2021/07/10 02:35:15;;;;;;;14.60;12.00;;;15.00;99.90;;;;;;5072845;28;20449;-76
2021/07/10 02:37:42;;;;;;;15.57;11.67;;;15.10;99.90;;;;;;5073668;28;20476;-78
2021/07/10 02:40:12;;;;;;;16.40;14.30;;;15.30;99.90;;;;;;5076788;28;20452;-78
2021/07/10 02:42:39;;;;;;;17.00;13.00;;;15.30;99.90;;;;;;5076695;28;20452;-77
2021/07/10 02:45:08;;;;;;;15.00;12.73;;;15.30;99.90;;;;;;5076472;28;20510;-77
2021/07/10 02:47:36;;;;;;;15.80;12.70;;;15.30;99.90;;;;;;5076655;28;20448;-77
2021/07/10 02:50:04;;;;;;;17.97;15.20;;;15.20;99.90;;;;;;5076585;28;20452;-77
2021/07/10 02:52:31;;;;;;;16.10;14.03;;;15.30;99.90;;;;;;5076470;28;20539;-78
2021/07/10 02:54:57;;;;;;;15.77;14.13;;;15.30;99.90;;;;;;5076212;28;20962;-76
2021/07/10 02:57:24;;;;;;;15.57;13.70;;;15.40;99.90;;;;;;5076627;28;20475;-77
2021/07/10 02:59:50;;;;;;;14.83;13.20;;;15.30;99.90;;;;;;5076384;28;20582;-77
2021/07/10 03:02:17;;;;;;;16.87;12.90;;;15.50;99.90;;;;;;5076428;28;20452;-76
2021/07/10 03:04:45;;;;;;;16.13;14.23;;;15.40;99.90;;;;;;5075813;28;21077;-76
2021/07/10 03:07:12;;;;;;;18.03;14.47;;;15.20;99.90;;;;;;5076239;28;20464;-78
2021/07/10 03:09:38;;;;;;;16.40;12.80;;;15.50;99.90;;;;;;5076310;28;20480;-77
2021/07/10 03:12:06;;;;;;;15.27;12.77;;;15.40;99.90;;;;;;5076629;28;20475;-78
2021/07/10 03:14:33;;;;;;;16.60;14.13;;;15.50;99.90;;;;;;5076091;28;20808;-78
2021/07/10 03:17:00;;;;;;;17.27;14.70;;;15.50;99.90;;;;;;5076058;28;20500;-78
2021/07/10 03:19:26;;;;;;;15.50;12.90;;;15.40;99.90;;;;;;5076145;28;20476;-77
2021/07/10 03:21:54;;;;;;;14.70;13.03;;;15.50;99.90;;;;;;5076120;28;20456;-78
2021/07/10 03:24:21;;;;;;;19.20;13.27;;;15.40;99.90;;;;;;5075949;28;20515;-78
2021/07/10 03:26:47;;;;;;;18.33;14.70;;;15.50;99.90;;;;;;5075845;28;20464;-77
2021/07/10 03:29:14;;;;;;;15.27;13.07;;;15.40;99.90;;;;;;5076038;28;20480;-78
2021/07/10 03:31:40;;;;;;;16.30;14.67;;;15.50;99.90;;;;;;5075877;28;20479;-77
2021/07/10 03:34:07;;;;;;;17.27;14.10;;;15.50;99.90;;;;;;5076040;28;20479;-77
2021/07/10 03:36:33;;;;;;;15.30;12.57;;;15.60;99.90;;;;;;5075907;28;20499;-76
2021/07/10 03:39:01;;;;;;;19.40;13.33;;;15.60;99.90;;;;;;5075788;28;20874;-76
2021/07/10 03:41:28;;;;;;;14.13;12.63;;;15.70;99.90;;;;;;5075816;28;20441;-76
2021/07/10 03:43:54;;;;;;;16.63;13.10;;;15.70;99.90;;;;;;5075684;28;20507;-77
2021/07/10 03:46:21;;;;;;;17.60;12.07;;;15.80;99.90;;;;;;5086499;22;20508;-77
2021/07/10 03:48:48;;;;;;;13.43;11.97;;;15.60;99.90;;;;;;5066611;28;20476;-77
2021/07/10 03:51:14;;;;;;;14.87;13.17;;;15.50;99.90;;;;;;5066529;28;20943;-77
2021/07/10 03:53:41;;;;;;;25.90;20.50;;;15.70;99.90;;;;;;5066462;28;20456;-77
2021/07/10 03:56:09;;;;;;;17.87;14.00;;;15.60;99.90;;;;;;5067564;28;20458;-76
2021/07/10 03:58:36;;;;;;;19.80;14.73;;;15.70;99.90;;;;;;5066443;28;20450;-78
2021/07/10 04:01:03;;;;;;;15.20;13.30;;;15.70;99.90;;;;;;5068983;28;20507;-79
2021/07/10 04:03:29;;;;;;;14.63;13.10;;;16.10;99.90;;;;;;5068021;28;20481;-78
2021/07/10 04:05:56;;;;;;;23.90;18.90;;;15.70;99.90;;;;;;5068233;28;20461;-80
2021/07/10 04:08:22;;;;;;;16.17;13.57;;;15.70;99.90;;;;;;5060181;28;20481;-80
2021/07/10 04:10:49;;;;;;;18.57;13.27;;;15.80;99.90;;;;;;5059435;28;20807;-78
2021/07/10 04:13:17;;;;;;;16.30;13.83;;;15.80;99.90;;;;;;5064054;28;20445;-77
2021/07/10 04:15:44;;;;;;;21.27;14.87;;;15.70;99.90;;;;;;5062806;28;20519;-77
2021/07/10 04:18:10;;;;;;;20.93;16.20;;;15.80;99.90;;;;;;5063910;28;20446;-78
2021/07/10 04:20:37;;;;;;;17.43;14.80;;;15.70;99.90;;;;;;5060333;28;20465;-80
2021/07/10 04:23:05;;;;;;;20.00;14.25;;;15.70;99.90;;;;;;5058359;28;20511;-79
2021/07/10 04:25:32;;;;;;;21.27;16.87;;;15.70;99.90;;;;;;5057463;28;20924;-79
2021/07/10 04:27:59;;;;;;;16.63;14.83;;;15.70;99.90;;;;;;5057855;28;20448;-80
2021/07/10 04:30:27;;;;;;;18.67;15.07;;;15.90;99.90;;;;;;5057393;28;20468;-79
2021/07/10 04:32:53;;;;;;;19.67;15.77;;;15.70;99.90;;;;;;5060150;28;20469;-78
2021/07/10 04:35:20;;;;;;;19.80;14.50;;;15.60;99.90;;;;;;5063906;28;20441;-79
2021/07/10 04:37:47;;;;;;;16.97;14.97;;;15.70;99.90;;;;;;5063320;28;20878;-78
2021/07/10 04:40:15;;;;;;;18.50;16.00;;;15.60;99.90;;;;;;5059742;28;20453;-79
2021/07/10 04:42:44;;;;;;;19.20;14.77;;;15.50;99.90;;;;;;5057380;28;20445;-80
2021/07/10 04:45:12;;;;;;;17.13;15.17;;;15.60;99.90;;;;;;5056987;28;20512;-80
2021/07/10 04:47:41;;;;;;;14.17;12.43;;;15.60;99.90;;;;;;5057056;28;20477;-80
2021/07/10 04:50:08;;;;;;;20.70;17.00;;;15.40;99.90;;;;;;5057878;28;20473;-79
2021/07/10 04:52:35;;;;;;;19.97;13.60;;;15.70;99.90;;;;;;5056698;28;20450;-80
2021/07/10 04:55:02;;;;;;;19.40;13.87;;;15.50;99.90;;;;;;5057672;28;20492;-79
2021/07/10 04:57:28;;;;;;;17.70;14.27;;;15.60;99.90;;;;;;5059162;28;20477;-79
2021/07/10 04:59:55;;;;;;;15.07;12.50;;;15.60;99.90;;;;;;5058379;28;20500;-79
2021/07/10 05:02:22;;;;;;;19.77;14.40;;;15.50;99.90;;;;;;5057284;28;20870;-79
2021/07/10 05:04:50;;;;;;;16.13;13.33;;;15.60;99.90;;;;;;5057982;28;20517;-79
2021/07/10 05:07:16;;;;;;;27.10;14.47;;;15.80;99.90;;;;;;5057412;28;21042;-80
2021/07/10 05:09:43;;;;;;;22.20;16.53;;;15.70;99.90;;;;;;5057552;28;20445;-79
2021/07/10 05:12:09;;;;;;;14.40;12.33;;;16.00;99.90;;;;;;5057956;28;20452;-80
2021/07/10 05:14:36;;;;;;;22.00;14.83;;;15.70;99.90;;;;;;5058244;28;20507;-80
2021/07/10 05:17:03;;;;;;;17.10;13.80;;;15.60;99.90;;;;;;5057154;28;20473;-80
2021/07/10 05:19:29;;;;;;;21.70;15.07;;;15.80;99.90;;;;;;5058412;28;20445;-79
2021/07/10 05:21:57;;;;;;;25.73;15.80;;;15.50;99.90;;;;;;5057571;28;20885;-80
2021/07/10 05:24:24;;;;;;;16.03;14.13;;;15.60;99.90;;;;;;5057924;28;20531;-80
2021/07/10 05:26:50;;;;;;;17.90;13.93;;;15.70;99.90;;;;;;5056939;28;21006;-80
2021/07/10 05:29:17;;;;;;;21.00;16.97;;;15.60;99.90;;;;;;5057403;28;20441;-80
2021/07/10 05:31:43;;;;;;;18.80;14.53;;;15.50;99.90;;;;;;5058032;28;20449;-80
2021/07/10 05:34:10;;;;;;;21.60;15.27;;;15.70;99.90;;;;;;5059416;28;20446;-80
2021/07/10 05:36:37;;;;;;;16.00;13.80;;;15.70;99.90;;;;;;5062217;28;20462;-79
2021/07/10 05:39:05;;;;;;;19.57;15.00;;;15.70;99.90;;;;;;5064590;28;20803;-78
2021/07/10 05:41:32;;;;;;;18.00;15.13;;;15.70;99.90;;;;;;5070060;28;20442;-79
2021/07/10 05:43:59;;;;;;;19.87;14.47;;;15.60;99.90;;;;;;5060525;28;20896;-77
2021/07/10 05:46:25;;;;;;;19.20;13.50;;;15.70;99.90;;;;;;5058891;28;20505;-78
2021/07/10 05:48:52;;;;;;;18.57;16.27;;;15.70;99.90;;;;;;5058335;28;20454;-78
2021/07/10 05:51:19;;;;;;;16.40;13.37;;;15.70;99.90;;;;;;5056959;28;20476;-79
2021/07/10 05:53:45;;;;;;;18.37;14.10;;;15.80;99.90;;;;;;5056438;28;20481;-80
2021/07/10 05:56:13;;;;;;;16.80;12.97;;;15.80;99.90;;;;;;5055787;28;20470;-79
2021/07/10 05:58:40;;;;;;;15.23;12.77;;;15.80;99.90;;;;;;5055942;28;20453;-80
2021/07/10 06:01:07;;;;;;;17.33;13.70;;;15.90;99.90;;;;;;5058648;28;20456;-80
2021/07/10 06:03:33;;;;;;;15.10;12.50;;;15.80;99.90;;;;;;5057679;28;20471;-80
2021/07/10 06:06:00;;;;;;;17.43;14.03;;;15.90;99.90;;;;;;5057869;28;20491;-79
2021/07/10 06:08:26;;;;;;;15.93;13.80;;;16.00;99.90;;;;;;5056127;28;20460;-79
2021/07/10 06:10:53;;;;;;;13.70;11.83;;;15.90;99.90;;;;;;5055819;28;20484;-80
2021/07/10 06:13:21;;;;;;;16.97;14.10;;;15.90;99.90;;;;;;5057564;28;20453;-78
2021/07/10 06:15:48;;;;;;;14.67;11.80;;;16.00;99.90;;;;;;5061173;28;20458;-78
2021/07/10 06:18:15;;;;;;;15.37;12.53;;;15.90;99.90;;;;;;5061070;28;20469;-78
2021/07/10 06:20:41;;;;;;;15.30;12.40;;;16.00;99.90;;;;;;5061135;28;20437;-78
2021/07/10 06:23:08;;;;;;;16.40;13.07;;;16.20;99.90;;;;;;5061599;28;20869;-77
2021/07/10 06:25:36;;;;;;;15.37;11.77;;;16.20;99.90;;;;;;5061030;28;20489;-78
2021/07/10 06:28:05;;;;;;;15.40;12.50;;;16.20;99.90;;;;;;5058752;28;20843;-79
2021/07/10 06:30:33;;;;;;;15.70;12.63;;;16.20;99.90;;;;;;5059422;28;20445;-80
2021/07/10 06:33:00;;;;;;;15.63;13.00;;;16.10;99.90;;;;;;5058692;28;20449;-79
2021/07/10 06:35:27;;;;;;;15.23;11.57;;;16.70;99.90;;;;;;5056462;28;20533;-80
2021/07/10 06:37:53;;;;;;;14.93;12.40;;;16.20;99.90;;;;;;5056564;28;20477;-80
2021/07/10 06:40:20;;;;;;;16.17;12.83;;;16.20;99.90;;;;;;5056795;28;20476;-81
2021/07/10 06:42:48;;;;;;;14.80;13.17;;;16.30;99.90;;;;;;5058412;28;20445;-78
2021/07/10 06:45:16;;;;;;;15.13;12.60;;;16.50;99.90;;;;;;5063835;28;20823;-76
2021/07/10 06:47:45;;;;;;;15.43;12.53;;;16.50;99.90;;;;;;5062085;28;20550;-79
2021/07/10 06:50:14;;;;;;;15.60;11.67;;;16.50;99.90;;;;;;5062735;28;20460;-78
2021/07/10 06:52:41;;;;;;;13.80;12.30;;;16.40;99.90;;;;;;5063051;28;20551;-77
2021/07/10 06:55:10;;;;;;;16.30;11.80;;;16.40;99.90;;;;;;5064891;28;20444;-77
2021/07/10 06:57:37;;;;;;;14.30;10.80;;;16.40;99.90;;;;;;5063885;28;20472;-78
2021/07/10 07:00:05;;;;;;;16.27;11.77;;;16.30;99.90;;;;;;5063523;28;20442;-78
2021/07/10 07:02:32;;;;;;;21.00;12.70;;;16.40;99.90;;;;;;5066777;28;20944;-77
2021/07/10 07:05:00;;;;;;;15.00;11.90;;;16.40;99.90;;;;;;5065097;28;20527;-80
2021/07/10 07:07:26;;;;;;;15.40;11.40;;;16.40;99.90;;;;;;5064726;28;20469;-77
2021/07/10 07:09:53;;;;;;;15.43;12.37;;;16.40;99.90;;;;;;5064196;28;20445;-78
2021/07/10 07:12:19;;;;;;;12.57;11.27;;;16.30;99.90;;;;;;5059104;28;20481;-79
2021/07/10 07:14:46;;;;;;;13.33;10.40;;;16.50;99.90;;;;;;5060177;28;20448;-78
2021/07/10 07:17:13;;;;;;;12.80;10.40;;;16.50;99.90;;;;;;5062055;28;20465;-78
2021/07/10 07:19:39;;;;;;;12.47;11.17;;;16.60;99.90;;;;;;5061257;28;20449;-77
2021/07/10 07:22:07;;;;;;;11.40;10.20;;;16.70;99.90;;;;;;5059429;28;20599;-77
2021/07/10 07:24:34;;;;;;;12.77;11.47;;;16.70;99.90;;;;;;5061372;28;20473;-76
2021/07/10 07:27:00;;;;;;;13.73;10.97;;;16.60;99.90;;;;;;5060972;28;20469;-77
2021/07/10 07:29:27;;;;;;;13.07;11.53;;;17.10;99.90;;;;;;5060675;28;20812;-78
2021/07/10 07:31:53;;;;;;;12.87;10.63;;;16.90;99.90;;;;;;5062645;28;20454;-77
2021/07/10 07:34:20;;;;;;;17.50;13.80;;;17.10;99.90;;;;;;5059672;28;20485;-79
2021/07/10 07:36:47;;;;;;;11.03;9.80;;;16.90;99.90;;;;;;5059528;28;20520;-78
2021/07/10 07:39:17;;;;;;;13.00;10.33;;;17.00;99.90;;;;;;5059142;28;20434;-80
2021/07/10 07:41:44;;;;;;;11.30;9.83;;;17.20;99.90;;;;;;5061270;28;20473;-81
2021/07/10 07:44:10;;;;;;;12.30;9.53;;;17.30;99.90;;;;;;5061219;28;20503;-78
2021/07/10 07:46:37;;;;;;;10.73;9.00;;;17.30;99.90;;;;;;5062258;28;20998;-79
2021/07/10 07:49:04;;;;;;;12.60;9.03;;;17.30;99.90;;;;;;5064481;28;20552;-78
2021/07/10 07:51:31;;;;;;;11.53;9.07;;;17.30;99.90;;;;;;5062447;28;20627;-79
2021/07/10 07:53:58;;;;;;;11.40;9.33;;;17.30;99.90;;;;;;5061537;28;20453;-80
2021/07/10 07:56:26;;;;;;;9.67;8.67;;;17.60;99.90;;;;;;5060168;28;20465;-80
2021/07/10 07:58:53;;;;;;;9.17;7.43;;;17.50;99.90;;;;;;5057749;28;20456;-80
2021/07/10 08:01:20;;;;;;;9.60;8.70;;;17.60;99.90;;;;;;5059199;28;20499;-78
2021/07/10 08:03:47;;;;;;;9.53;8.63;;;17.40;99.90;;;;;;5063904;28;20456;-79
2021/07/10 08:06:14;;;;;;;10.20;9.23;;;17.50;99.90;;;;;;5058820;28;20498;-79
2021/07/10 08:08:41;;;;;;;8.80;8.00;;;17.60;99.90;;;;;;5057660;28;20449;-79
2021/07/10 08:11:09;;;;;;;13.20;8.87;;;17.50;99.90;;;;;;5060091;28;20450;-79
2021/07/10 08:13:37;;;;;;;8.03;7.20;;;17.60;99.90;;;;;;5058220;28;20447;-78
2021/07/10 08:16:08;;;;;;;10.17;8.07;;;17.80;99.90;;;;;;5058209;28;20516;-79
2021/07/10 08:18:35;;;;;;;8.13;6.97;;;17.70;99.90;;;;;;5061131;28;20430;-78
2021/07/10 08:21:01;;;;;;;11.30;7.37;;;17.70;99.90;;;;;;5064302;28;20453;-79
2021/07/10 08:23:28;;;;;;;9.80;7.13;;;17.50;99.90;;;;;;5064017;28;20450;-78
2021/07/10 08:25:55;;;;;;;7.97;7.10;;;17.80;99.90;;;;;;5064364;28;20539;-79
2021/07/10 08:28:21;;;;;;;9.17;8.27;;;17.90;99.90;;;;;;5059256;28;20567;-80
2021/07/10 08:30:49;;;;;;;7.07;6.37;;;17.90;99.90;;;;;;5060238;28;20453;-80
2021/07/10 08:33:16;;;;;;;6.10;5.20;;;18.10;99.90;;;;;;5061419;28;20453;-80
2021/07/10 08:35:43;;;;;;;8.23;7.47;;;17.90;99.90;;;;;;5057207;28;20489;-79
2021/07/10 08:38:10;;;;;;;7.97;7.17;;;18.30;99.90;;;;;;5057611;28;20589;-79
2021/07/10 08:40:36;;;;;;;8.03;7.20;;;18.10;99.90;;;;;;5058149;28;20952;-80
2021/07/10 08:43:04;;;;;;;7.90;6.33;;;18.30;99.90;;;;;;5057783;28;20445;-79
2021/07/10 08:45:33;;;;;;;9.10;7.23;;;18.20;99.90;;;;;;5056831;28;20906;-80
2021/07/10 08:48:02;;;;;;;9.80;7.53;;;18.30;99.90;;;;;;5057930;28;20484;-80
2021/07/10 08:50:32;;;;;;;7.77;7.03;;;18.30;99.90;;;;;;5058596;28;20496;-77
2021/07/10 08:52:59;;;;;;;8.87;8.00;;;18.40;99.90;;;;;;5058536;28;20446;-80
2021/07/10 08:55:26;;;;;;;9.63;8.07;;;18.50;99.90;;;;;;5057522;28;20453;-81
2021/07/10 08:57:53;;;;;;;9.50;8.50;;;18.00;99.90;;;;;;5057531;28;20446;-79
2021/07/10 09:00:22;;;;;;;9.27;8.33;;;18.60;99.90;;;;;;5057498;28;20469;-80
2021/07/10 09:02:52;;;;;;;8.00;7.20;;;18.80;99.90;;;;;;5062517;28;20499;-77
2021/07/10 09:05:21;;;;;;;8.83;7.67;;;18.80;99.90;;;;;;5063930;28;20547;-77
2021/07/10 09:08:17;;;;;;;10.63;9.60;;;19.10;99.90;;;;;;5064494;28;20451;-77
2021/07/10 09:10:45;;;;;;;10.17;9.17;;;19.00;99.90;;;;;;5064103;28;20438;-78
2021/07/10 09:13:12;;;;;;;11.57;8.73;;;19.00;99.90;;;;;;5063171;28;20457;-78
2021/07/10 09:15:39;;;;;;;13.13;9.10;;;19.00;99.90;;;;;;5063292;28;20465;-79
2021/07/10 09:18:07;;;;;;;10.07;8.90;;;19.10;99.90;;;;;;5061942;28;20472;-77
2021/07/10 09:20:36;;;;;;;10.00;8.90;;;19.30;99.90;;;;;;5062000;28;20458;-79
2021/07/10 09:23:22;;;;;;;10.40;9.40;;;19.30;99.90;;;;;;5060200;28;20819;-79
2021/07/10 09:25:49;;;;;;;10.03;8.93;;;19.40;99.90;;;;;;5064774;28;20832;-78
2021/07/10 09:28:15;;;;;;;9.13;8.23;;;19.40;99.90;;;;;;5060915;28;20852;-79
2021/07/10 09:30:43;;;;;;;11.97;9.63;;;19.40;99.90;;;;;;5057029;28;20496;-80
2021/07/10 09:33:13;;;;;;;9.63;8.40;;;19.40;99.90;;;;;;5058607;28;20461;-79
2021/07/10 09:35:54;;;;;;;10.10;8.97;;;19.50;99.90;;;;;;5061349;28;20447;-79
2021/07/10 09:38:26;;;;;;;9.90;8.90;;;19.60;99.90;;;;;;5058307;28;20431;-78
2021/07/10 09:40:58;;;;;;;8.40;7.60;;;19.70;99.90;;;;;;5056526;28;20449;-80
2021/07/10 09:43:26;;;;;;;13.37;9.60;;;19.90;99.90;;;;;;5057151;28;20453;-80
2021/07/10 09:45:53;;;;;;;11.27;9.50;;;19.80;99.90;;;;;;5080765;22;20502;-76
2021/07/10 09:48:20;;;;;;;13.23;8.90;;;20.10;99.90;;;;;;5078479;28;20465;-78
2021/07/10 09:50:47;;;;;;;10.20;8.93;;;19.90;99.90;;;;;;5080687;28;20804;-77
2021/07/10 09:53:23;;;;;;;10.70;8.13;;;19.90;99.90;;;;;;5080806;28;20450;-78
2021/07/10 09:55:50;;;;;;;10.07;8.03;;;;;;;;;;5083825;28;20431;-76
2021/07/10 09:58:31;;;;;;;9.27;8.43;;;20.40;99.90;;;;;;5079570;28;20447;-77
2021/07/10 10:00:58;;;;;;;9.00;7.97;;;20.10;99.90;;;;;;5080234;28;20538;-78
2021/07/10 10:03:33;;;;;;;9.80;8.63;;;20.40;99.90;;;;;;5077642;28;20587;-78
2021/07/10 10:06:28;;;;;;;9.13;7.67;;;20.10;99.90;;;;;;5075029;28;20505;-78
2021/07/10 10:08:57;;;;;;;9.00;8.20;;;20.20;99.90;;;;;;5075368;28;20825;-79
2021/07/10 10:11:23;;;;;;;10.00;8.60;;;20.10;99.90;;;;;;5074786;28;20484;-77
2021/07/10 10:13:50;;;;;;;9.13;8.33;;;20.20;99.90;;;;;;5073924;28;20485;-78
2021/07/10 10:16:17;;;;;;;9.57;7.80;;;20.40;99.90;;;;;;5073566;28;20498;-77
2021/07/10 10:18:44;;;;;;;10.27;8.60;;;20.30;99.90;;;;;;5074108;28;20459;-76
2021/07/10 10:21:10;;;;;;;8.63;7.73;;;20.50;99.90;;;;;;5073603;28;20480;-77
2021/07/10 10:23:37;;;;;;;9.40;8.47;;;20.60;99.90;;;;;;5073605;28;20472;-77
2021/07/10 10:26:05;;;;;;;8.20;7.47;;;20.70;99.90;;;;;;5077966;28;20490;-77
2021/07/10 10:28:34;;;;;;;8.00;7.37;;;20.80;99.90;;;;;;5080488;28;20449;-78
2021/07/10 10:31:00;;;;;;;7.60;6.90;;;21.00;99.90;;;;;;5075853;28;20939;-78
2021/07/10 10:33:27;;;;;;;12.03;7.27;;;21.10;99.90;;;;;;5079419;28;20484;-80
2021/07/10 10:35:55;;;;;;;7.70;7.00;;;21.10;99.90;;;;;;5075475;28;20445;-79
2021/07/10 10:38:24;;;;;;;6.77;6.20;;;21.10;99.90;;;;;;5076773;28;20441;-78
2021/07/10 10:40:53;;;;;;;7.30;6.70;;;21.30;99.90;;;;;;5078008;28;20475;-77
2021/07/10 10:43:25;;;;;;;8.33;7.43;;;21.30;99.90;;;;;;5078507;28;20449;-77
2021/07/10 10:45:52;;;;;;;7.53;6.83;;;21.50;99.90;;;;;;5076529;28;20526;-77
2021/07/10 10:48:35;;;;;;;6.97;6.17;;;21.50;99.90;;;;;;5076457;28;20448;-76
2021/07/10 10:51:02;;;;;;;8.43;6.90;;;21.30;99.90;;;;;;5076111;28;20501;-77
2021/07/10 10:53:29;;;;;;;6.90;6.30;;;21.20;99.90;;;;;;5079627;28;20957;-78
2021/07/10 10:55:55;;;;;;;7.17;6.57;;;21.10;99.90;;;;;;5076223;28;20469;-78
2021/07/10 10:58:26;;;;;;;8.43;7.53;;;21.00;99.90;;;;;;5077543;28;20445;-78
2021/07/10 11:00:59;;;;;;;8.00;7.20;;;21.10;99.90;;;;;;5081068;28;20432;-78
2021/07/10 11:03:36;;;;;;;7.43;6.70;;;21.00;99.90;;;;;;5081308;28;20502;-78
2021/07/10 11:06:02;;;;;;;6.40;5.53;;;20.90;99.90;;;;;;5081112;28;20500;-78
2021/07/10 11:08:37;;;;;;;7.20;6.50;;;20.80;99.90;;;;;;5081460;28;20477;-77
2021/07/10 11:11:24;;;;;;;6.30;5.80;;;20.90;99.90;;;;;;5081045;28;20432;-78
2021/07/10 11:14:13;;;;;;;7.37;6.67;;;21.00;99.90;;;;;;5080168;28;20448;-77
2021/07/10 11:17:02;;;;;;;7.40;6.70;;;21.10;99.90;;;;;;5079651;28;20529;-78
2021/07/10 11:19:53;;;;;;;6.37;5.87;;;21.30;99.90;;;;;;5078284;28;20476;-78
2021/07/10 11:22:56;;;;;;;7.87;6.80;;;21.20;99.90;;;;;;5078257;28;20975;-78
2021/07/10 11:25:59;;;;;;;8.63;6.73;;;21.50;99.90;;;;;;5079222;28;20429;-79
2021/07/10 11:28:28;;;;;;;7.60;6.33;;;21.60;99.90;;;;;;5077480;28;20436;-79
2021/07/10 11:30:58;;;;;;;8.20;7.30;;;21.70;99.90;;;;;;5078127;28;20471;-78
2021/07/10 11:34:04;;;;;;;6.67;6.17;;;21.80;99.90;;;;;;5078602;28;20945;-78
2021/07/10 11:36:55;;;;;;;6.57;6.00;;;21.80;99.90;;;;;;5076932;28;20485;-78
2021/07/10 11:39:44;;;;;;;5.97;5.37;;;23.00;99.90;;;;;;5078364;28;20486;-78
2021/07/10 11:42:47;;;;;;;6.20;5.70;;;22.00;99.90;;;;;;5077386;28;20465;-78
2021/07/10 11:45:30;;;;;;;10.00;6.53;;;21.90;99.90;;;;;;5077838;28;20923;-78
2021/07/10 11:48:00;;;;;;;6.23;5.60;;;22.00;99.90;;;;;;5077515;28;20537;-78
2021/07/10 11:50:28;;;;;;;12.70;7.00;;;21.90;99.90;;;;;;5078623;28;20432;-78
2021/07/10 11:53:00;;;;;;;7.30;6.43;;;21.90;99.90;;;;;;5081413;28;20487;-78
2021/07/10 11:55:29;;;;;;;9.10;6.70;;;22.10;99.90;;;;;;5079822;28;20816;-79
2021/07/10 11:57:56;;;;;;;7.23;6.53;;;22.20;99.90;;;;;;5077872;28;20878;-79
2021/07/10 12:00:24;;;;;;;6.33;5.77;;;22.10;99.90;;;;;;5078226;28;20473;-77
2021/07/10 12:02:51;;;;;;;6.50;6.00;;;22.00;99.90;;;;;;5077543;28;20449;-77
2021/07/10 12:05:21;;;;;;;7.60;5.97;;;22.10;99.90;;;;;;5077179;28;20499;-78
2021/07/10 12:07:49;;;;;;;6.27;5.53;;;22.00;99.90;;;;;;5078221;28;21060;-78
2021/07/10 12:10:18;;;;;;;12.70;5.70;;;22.00;99.90;;;;;;5076203;28;20468;-77
2021/07/10 12:12:46;;;;;;;5.87;5.27;;;22.00;99.90;;;;;;5078198;28;20969;-77
2021/07/10 12:15:15;;;;;;;5.27;4.83;;;22.10;99.90;;;;;;5076442;28;20498;-76
2021/07/10 12:17:45;;;;;;;9.17;6.40;;;22.20;99.90;;;;;;5076993;28;20602;-78
2021/07/10 12:20:13;;;;;;;7.27;6.57;;;22.30;99.90;;;;;;5078062;28;20476;-78
2021/07/10 12:22:51;;;;;;;6.27;5.67;;;22.40;99.90;;;;;;5078165;28;20503;-78
2021/07/10 12:25:18;;;;;;;6.43;5.20;;;22.40;99.90;;;;;;5077970;28;20433;-78
2021/07/10 12:27:52;;;;;;;5.63;5.03;;;22.50;99.90;;;;;;5076957;28;20542;-78
2021/07/10 12:30:19;;;;;;;6.00;5.40;;;22.60;99.90;;;;;;5077185;28;20756;-77
2021/07/10 12:32:46;;;;;;;6.10;5.60;;;22.60;99.90;;;;;;5076436;28;20506;-77
2021/07/10 12:35:15;;;;;;;6.03;5.60;;;22.70;99.90;;;;;;5076344;28;20444;-77
2021/07/10 12:37:41;;;;;;;8.17;6.70;;;22.60;99.90;;;;;;5076602;28;20468;-77
2021/07/10 12:40:12;;;;;;;5.87;5.37;;;22.70;99.90;;;;;;5076707;28;20448;-77
2021/07/10 12:42:39;;;;;;;5.83;5.33;;;22.70;99.90;;;;;;5079950;28;20437;-77
2021/07/10 12:45:09;;;;;;;6.20;5.70;;;22.70;99.90;;;;;;5080837;28;20449;-76